Time;durP1;ratioP1;P1;durP2;ratioP2;P2;SDS_P1;SDS_P2;PMS_P1;PMS_P2;Temp;Humidity;BMP_temperature;BMP_pressure;BME280_temperature;BME280_humidity;BME280_pressure;Samples;Min_cycle;Max_cycle;Signal;HPM_P1;HPM_P2
2023/08/03 00:00:21;;;;;;;49.13;14.88;;;;;;;18.32;100.00;91754.81;4792599;29;20518;-79
2023/08/03 00:02:46;;;;;;;37.45;14.10;;;;;;;18.23;100.00;91751.63;4791565;30;20105;-79
2023/08/03 00:05:16;;;;;;;37.72;13.95;;;;;;;18.22;100.00;91763.34;4790898;29;20046;-78
2023/08/03 00:07:44;;;;;;;32.15;13.68;;;;;;;18.20;100.00;91766.34;4797964;29;20055;-78
2023/08/03 00:10:10;;;;;;;43.72;13.55;;;;;;;18.20;100.00;91762.94;4799865;29;20099;-78
2023/08/03 00:12:36;;;;;;;53.10;14.25;;;;;;;18.13;100.00;91760.91;4795702;30;20055;-78
2023/08/03 00:15:02;;;;;;;48.38;14.18;;;;;;;18.13;100.00;91754.84;4794735;29;20128;-79
2023/08/03 00:17:28;;;;;;;44.58;14.75;;;;;;;18.14;100.00;91759.78;4791323;30;20506;-79
2023/08/03 00:19:54;;;;;;;39.28;14.07;;;;;;;18.23;100.00;91759.56;4790938;29;20047;-79
2023/08/03 00:22:19;;;;;;;41.53;13.38;;;;;;;18.20;100.00;91747.03;4790261;29;20042;-80
2023/08/03 00:24:45;;;;;;;38.88;13.10;;;;;;;18.20;100.00;91753.09;4791772;29;20410;-79
2023/08/03 00:27:11;;;;;;;39.95;13.93;;;;;;;18.24;100.00;91758.47;4789756;30;20339;-80
2023/08/03 00:29:37;;;;;;;47.33;13.48;;;;;;;18.28;100.00;91754.78;4788884;29;20399;-79
2023/08/03 00:32:03;;;;;;;43.60;14.10;;;;;;;18.26;100.00;91729.72;4790704;29;20036;-79
2023/08/03 00:34:31;;;;;;;41.95;14.48;;;;;;;18.37;100.00;91762.47;4789955;29;20081;-79
2023/08/03 00:36:57;;;;;;;46.58;14.27;;;;;;;18.35;100.00;91758.63;4791028;29;20100;-78
2023/08/03 00:39:24;;;;;;;42.42;13.48;;;;;;;18.34;100.00;91752.59;4789231;29;20047;-79
2023/08/03 00:41:50;;;;;;;41.83;13.93;;;;;;;18.31;100.00;91743.47;4791411;29;20119;-79
2023/08/03 00:44:16;;;;;;;41.03;13.50;;;;;;;18.27;100.00;91737.31;4791021;29;20039;-80
2023/08/03 00:46:42;;;;;;;48.47;13.48;;;;;;;18.24;100.00;91730.09;4789851;30;20540;-80
2023/08/03 00:49:08;;;;;;;51.88;13.80;;;;;;;18.39;100.00;91739.03;4788993;29;20046;-79
2023/08/03 00:51:34;;;;;;;37.65;13.45;;;;;;;18.23;100.00;91733.09;4789676;29;20054;-80
2023/08/03 00:53:59;;;;;;;42.85;13.48;;;;;;;18.22;100.00;91723.63;4790682;29;20031;-79
2023/08/03 00:56:25;;;;;;;41.28;14.23;;;;;;;18.22;100.00;91713.03;4790679;29;20063;-78
2023/08/03 00:58:51;;;;;;;45.70;12.77;;;;;;;18.20;100.00;91707.31;4773008;30;20066;-80
2023/08/03 01:01:17;;;;;;;39.33;13.18;;;;;;;18.19;100.00;91706.53;4790528;29;20039;-79
2023/08/03 01:03:42;;;;;;;40.75;13.00;;;;;;;18.17;100.00;91715.94;4790062;29;20486;-79
2023/08/03 01:06:08;;;;;;;49.60;14.32;;;;;;;18.18;100.00;91709.53;4789480;29;20489;-79
2023/08/03 01:08:33;;;;;;;51.00;13.43;;;;;;;18.14;100.00;91717.41;4790593;29;20114;-79
2023/08/03 01:10:59;;;;;;;37.63;12.63;;;;;;;18.10;100.00;91712.06;4791005;30;20057;-79
2023/08/03 01:13:25;;;;;;;42.85;13.82;;;;;;;18.07;100.00;91698.75;4804778;29;20058;-79
2023/08/03 01:15:52;;;;;;;39.03;13.43;;;;;;;18.04;100.00;91702.88;4788569;30;20414;-80
2023/08/03 01:18:18;;;;;;;32.03;12.35;;;;;;;18.04;100.00;91713.47;4788851;29;20047;-79
2023/08/03 01:20:44;;;;;;;46.22;12.35;;;;;;;18.01;100.00;91708.88;4788367;29;20100;-79
2023/08/03 01:23:10;;;;;;;34.80;11.88;;;;;;;18.00;100.00;91704.69;4788005;30;20070;-79
2023/08/03 01:25:36;;;;;;;40.50;12.57;;;;;;;17.98;100.00;91703.50;4790225;29;20569;-79
2023/08/03 01:28:06;;;;;;;42.13;12.15;;;;;;;18.01;100.00;91703.59;4788873;29;20047;-79
2023/08/03 01:30:32;;;;;;;41.17;12.88;;;;;;;17.98;100.00;91688.38;4788598;29;20081;-80
2023/08/03 01:32:59;;;;;;;40.83;14.05;;;;;;;17.95;100.00;91686.44;4789329;29;20036;-80
2023/08/03 01:35:24;;;;;;;44.53;13.27;;;;;;;17.93;100.00;91690.56;4788746;29;20039;-80
2023/08/03 01:37:51;;;;;;;44.60;13.63;;;;;;;17.92;100.00;91702.25;4788148;29;20054;-80
2023/08/03 01:40:18;;;;;;;54.22;13.40;;;;;;;17.87;100.00;91703.28;4788077;29;20043;-80
2023/08/03 01:42:44;;;;;;;45.97;12.90;;;;;;;17.85;100.00;91694.94;4789841;30;20034;-80
2023/08/03 01:45:11;;;;;;;33.72;12.82;;;;;;;17.86;100.00;91701.78;4788355;30;20043;-78
2023/08/03 01:47:37;;;;;;;34.90;13.10;;;;;;;17.87;100.00;91705.94;4788016;29;20050;-78
2023/08/03 01:50:03;;;;;;;37.45;13.35;;;;;;;17.85;100.00;91702.88;4789511;29;20043;-78
2023/08/03 01:52:28;;;;;;;38.13;12.93;;;;;;;17.84;100.00;91701.34;4788577;30;20499;-78
2023/08/03 01:54:54;;;;;;;38.33;12.07;;;;;;;17.81;100.00;91702.81;4789272;29;20118;-79
2023/08/03 01:57:20;;;;;;;43.03;12.38;;;;;;;17.80;100.00;91700.50;4789304;29;20058;-79
2023/08/03 01:59:45;;;;;;;42.90;13.07;;;;;;;17.76;100.00;91699.66;4787240;29;20058;-79
2023/08/03 02:02:12;;;;;;;35.95;13.75;;;;;;;17.75;100.00;91706.06;4787712;29;20070;-79
2023/08/03 02:04:38;;;;;;;51.17;13.32;;;;;;;17.76;100.00;91712.88;4787632;30;20058;-80
2023/08/03 02:07:16;;;;;;;40.22;13.77;;;;;;;17.76;100.00;91702.31;4788318;29;20042;-79
2023/08/03 02:09:43;;;;;;;42.63;13.20;;;;;;;17.72;100.00;91704.09;4788349;29;20066;-79
2023/08/03 02:12:08;;;;;;;42.38;13.30;;;;;;;17.72;100.00;91696.16;4779222;30;20047;-80
2023/08/03 02:14:34;;;;;;;34.67;13.02;;;;;;;17.69;100.00;91695.00;4787636;30;20058;-79
2023/08/03 02:17:01;;;;;;;35.05;13.73;;;;;;;17.66;100.00;91696.47;4781339;30;20047;-79
2023/08/03 02:19:26;;;;;;;30.98;12.10;;;;;;;17.65;100.00;91696.78;4787846;29;20062;-79
2023/08/03 02:21:52;;;;;;;29.83;12.48;;;;;;;17.65;100.00;91688.84;4787827;29;20039;-79
2023/08/03 02:24:17;;;;;;;41.50;13.55;;;;;;;17.63;100.00;91681.28;4789357;30;20043;-78
2023/08/03 02:26:43;;;;;;;44.25;12.85;;;;;;;17.62;100.00;91669.16;4780709;30;20134;-80
2023/08/03 02:29:09;;;;;;;39.47;13.38;;;;;;;17.62;100.00;91663.09;4797418;29;20039;-80
2023/08/03 02:31:34;;;;;;;44.13;13.75;;;;;;;17.62;100.00;91663.84;4786060;30;20061;-81
2023/08/03 02:34:00;;;;;;;35.33;12.43;;;;;;;17.61;100.00;91664.22;4788746;29;20386;-80
2023/08/03 02:36:33;;;;;;;39.08;14.05;;;;;;;17.61;100.00;91667.63;4787540;30;20036;-81
2023/08/03 02:39:04;;;;;;;48.63;13.32;;;;;;;17.58;100.00;91668.31;4788048;30;20055;-81
2023/08/03 02:41:33;;;;;;;39.28;13.35;;;;;;;17.56;100.00;91665.28;4788735;29;20524;-80
2023/08/03 02:44:00;;;;;;;37.83;12.80;;;;;;;17.54;100.00;91674.66;4802784;29;20261;-80
2023/08/03 02:46:32;;;;;;;56.38;13.48;;;;;;;17.51;100.00;91676.13;4804053;29;20399;-80
2023/08/03 02:48:58;;;;;;;42.30;12.82;;;;;;;17.50;100.00;91674.59;4788133;30;20558;-80
2023/08/03 02:51:27;;;;;;;38.45;13.95;;;;;;;17.52;100.00;91682.16;4787017;29;20035;-81
2023/08/03 02:53:52;;;;;;;37.42;13.18;;;;;;;17.54;100.00;91672.00;4788862;29;20045;-81
2023/08/03 02:56:18;;;;;;;45.05;13.48;;;;;;;17.56;100.00;91672.44;4788265;29;20043;-80
2023/08/03 02:58:48;;;;;;;38.60;14.70;;;;;;;17.62;100.00;91671.03;4788763;30;20050;-80
2023/08/03 03:01:24;;;;;;;40.03;13.35;;;;;;;17.64;100.00;91663.53;4788436;30;20482;-81
2023/08/03 03:03:53;;;;;;;45.55;14.20;;;;;;;17.64;100.00;91668.81;4801078;29;20044;-80
2023/08/03 03:06:19;;;;;;;49.25;15.02;;;;;;;17.67;100.00;91660.16;4787763;30;20058;-80
2023/08/03 03:08:47;;;;;;;38.17;14.20;;;;;;;17.68;100.00;91659.81;4773395;30;20050;-80
2023/08/03 03:11:13;;;;;;;43.80;13.27;;;;;;;17.69;100.00;91661.34;4786287;30;20039;-81
2023/08/03 03:13:39;;;;;;;41.25;13.73;;;;;;;17.72;100.00;91659.91;4784859;29;20396;-81
2023/08/03 03:16:05;;;;;;;53.28;14.00;;;;;;;17.73;100.00;91671.25;4787416;29;20051;-81
2023/08/03 03:18:31;;;;;;;41.67;14.23;;;;;;;17.76;100.00;91675.84;4788293;30;20047;-81
2023/08/03 03:20:57;;;;;;;39.85;13.85;;;;;;;17.81;100.00;91678.19;4786808;30;20035;-81
2023/08/03 03:23:22;;;;;;;38.75;13.85;;;;;;;17.83;100.00;91681.28;4790437;29;20050;-81
2023/08/03 03:25:48;;;;;;;37.08;14.52;;;;;;;17.83;100.00;91687.38;4792648;29;20537;-81
2023/08/03 03:28:14;;;;;;;38.65;13.82;;;;;;;17.88;100.00;91688.97;4806203;29;20047;-81
2023/08/03 03:30:40;;;;;;;48.58;13.82;;;;;;;17.91;100.00;91693.53;4791295;30;20043;-81
2023/08/03 03:33:05;;;;;;;42.88;14.35;;;;;;;17.92;100.00;91695.06;4792372;30;20051;-81
2023/08/03 03:35:31;;;;;;;38.05;13.45;;;;;;;17.92;100.00;91695.06;4777041;30;20050;-81
2023/08/03 03:37:57;;;;;;;42.38;14.25;;;;;;;17.93;100.00;91695.84;4793469;29;20464;-80
2023/08/03 03:40:26;;;;;;;40.92;14.80;;;;;;;17.93;100.00;91696.63;4790771;29;20585;-80
2023/08/03 03:42:52;;;;;;;49.72;14.35;;;;;;;17.94;100.00;91698.13;4778122;30;20075;-80
2023/08/03 03:45:18;;;;;;;55.22;15.65;;;;;;;17.95;100.00;91712.16;4798559;30;21613;-80
2023/08/03 03:47:45;;;;;;;55.25;15.70;;;;;;;17.94;100.00;91706.06;4798686;29;20047;-80
2023/08/03 03:50:11;;;;;;;44.30;14.90;;;;;;;17.96;100.00;91706.50;4794907;29;20444;-80
2023/08/03 03:52:36;;;;;;;56.92;14.65;;;;;;;18.01;100.00;91705.44;4791227;29;20039;-80
2023/08/03 03:55:03;;;;;;;55.58;14.52;;;;;;;17.98;100.00;91704.25;4792270;29;20039;-81
2023/08/03 03:57:29;;;;;;;40.28;13.50;;;;;;;18.02;100.00;91710.41;4805328;29;20043;-79
2023/08/03 03:59:54;;;;;;;50.13;15.02;;;;;;;18.05;100.00;91709.69;4790896;29;20432;-80
2023/08/03 04:02:20;;;;;;;42.65;14.23;;;;;;;18.23;100.00;91711.88;4791423;29;20095;-81
2023/08/03 04:04:46;;;;;;;47.90;13.30;;;;;;;18.14;100.00;91703.41;4791877;30;20413;-80
2023/08/03 04:07:12;;;;;;;39.47;14.13;;;;;;;18.10;100.00;91701.47;4789148;29;20043;-81
2023/08/03 04:09:37;;;;;;;52.67;15.10;;;;;;;18.08;100.00;91698.41;4790341;30;20047;-80
2023/08/03 04:12:03;;;;;;;42.78;13.63;;;;;;;18.07;100.00;91706.69;4790997;29;20055;-81
2023/08/03 04:14:29;;;;;;;52.55;13.90;;;;;;;18.01;100.00;91705.44;4791422;30;20031;-80
2023/08/03 04:16:54;;;;;;;45.22;14.45;;;;;;;18.04;100.00;91713.47;4788621;29;20073;-80
2023/08/03 04:19:21;;;;;;;44.65;13.77;;;;;;;18.01;100.00;91702.78;4790266;30;20514;-81
2023/08/03 04:21:46;;;;;;;52.08;15.10;;;;;;;18.00;100.00;91717.91;4789146;29;20056;-81
2023/08/03 04:24:12;;;;;;;45.20;14.75;;;;;;;18.01;100.00;91722.13;4790888;29;20032;-81
2023/08/03 04:26:38;;;;;;;46.03;15.93;;;;;;;18.01;100.00;91708.09;4788461;29;20043;-80
2023/08/03 04:29:08;;;;;;;45.63;15.00;;;;;;;18.04;100.00;91713.47;4775186;30;20394;-80
2023/08/03 04:31:33;;;;;;;45.38;14.25;;;;;;;17.99;100.00;91716.41;4775741;30;20086;-80
2023/08/03 04:34:01;;;;;;;43.85;15.30;;;;;;;18.12;100.00;91716.22;4787911;29;20047;-80
2023/08/03 04:36:28;;;;;;;49.58;15.23;;;;;;;18.04;100.00;91708.16;4771709;30;20035;-80
2023/08/03 04:38:54;;;;;;;44.60;14.77;;;;;;;18.03;100.00;91709.25;4788964;29;20069;-81
2023/08/03 04:41:20;;;;;;;55.40;15.90;;;;;;;18.03;100.00;91706.63;4792705;29;20035;-81
2023/08/03 04:43:47;;;;;;;47.40;14.88;;;;;;;18.04;100.00;91697.56;4790729;29;20506;-80
2023/08/03 04:46:13;;;;;;;42.25;14.57;;;;;;;18.07;100.00;91706.69;4775554;30;20051;-80
2023/08/03 04:48:39;;;;;;;37.38;15.00;;;;;;;18.08;100.00;91708.22;4790725;30;20040;-80
2023/08/03 04:51:07;;;;;;;42.58;14.10;;;;;;;18.08;100.00;91714.28;4791276;29;20043;-80
2023/08/03 04:53:33;;;;;;;43.55;14.43;;;;;;;18.12;100.00;91708.28;4790560;29;20037;-80
2023/08/03 04:55:59;;;;;;;41.45;13.20;;;;;;;18.13;100.00;91707.19;4792321;29;20074;-80
2023/08/03 04:58:24;;;;;;;54.17;16.25;;;;;;;18.07;100.00;91712.75;4790547;30;20409;-81
2023/08/03 05:00:50;;;;;;;42.83;15.25;;;;;;;18.06;100.00;91721.06;4775549;30;20054;-81
2023/08/03 05:03:16;;;;;;;51.25;14.25;;;;;;;18.08;100.00;91716.94;4802818;29;20047;-80
2023/08/03 05:05:42;;;;;;;49.95;15.27;;;;;;;18.06;100.00;91711.22;4790440;29;20058;-82
2023/08/03 05:08:12;;;;;;;44.50;14.93;;;;;;;18.09;100.00;91710.53;4774873;29;20035;-81
2023/08/03 05:10:37;;;;;;;46.67;15.32;;;;;;;18.12;100.00;91716.22;4790164;29;20111;-81
2023/08/03 05:13:03;;;;;;;43.45;15.32;;;;;;;18.15;100.00;91707.56;4789495;29;20052;-80
2023/08/03 05:15:29;;;;;;;49.67;14.88;;;;;;;18.18;100.00;91712.94;4790257;30;20050;-80
2023/08/03 05:17:54;;;;;;;42.45;16.50;;;;;;;18.20;100.00;91710.72;4787394;30;20184;-80
2023/08/03 05:20:20;;;;;;;54.45;14.93;;;;;;;18.23;100.00;91719.84;4790472;29;20047;-80
2023/08/03 05:22:45;;;;;;;41.08;15.07;;;;;;;18.25;100.00;91717.59;4805857;29;20035;-80
2023/08/03 05:25:11;;;;;;;39.80;14.00;;;;;;;18.27;100.00;91724.06;4791481;30;20130;-81
2023/08/03 05:27:37;;;;;;;45.17;15.45;;;;;;;18.30;100.00;91719.97;4795444;29;20043;-81
2023/08/03 05:30:03;;;;;;;45.88;15.77;;;;;;;18.36;100.00;91712.50;4790939;30;20567;-81
2023/08/03 05:32:28;;;;;;;51.47;14.70;;;;;;;18.38;100.00;91718.97;4791021;29;20383;-82
2023/08/03 05:34:54;;;;;;;48.85;14.35;;;;;;;18.44;100.00;91712.28;4789208;29;20147;-81
2023/08/03 05:37:20;;;;;;;46.30;15.45;;;;;;;18.39;100.00;91704.59;4788979;30;20034;-81
2023/08/03 05:39:45;;;;;;;46.75;14.82;;;;;;;18.43;100.00;91712.63;4790392;29;20054;-80
2023/08/03 05:42:12;;;;;;;51.65;14.68;;;;;;;18.41;100.00;91704.25;4790390;29;20031;-82
2023/08/03 05:44:38;;;;;;;42.75;14.60;;;;;;;18.47;100.00;91711.56;4788126;29;20050;-81
2023/08/03 05:47:05;;;;;;;43.85;14.13;;;;;;;18.58;100.00;91710.97;4789873;30;20039;-80
2023/08/03 05:49:31;;;;;;;41.92;13.07;;;;;;;18.56;100.00;91715.88;4788016;29;20050;-81
2023/08/03 05:51:57;;;;;;;43.65;14.98;;;;;;;18.57;100.00;91712.84;4774261;30;20035;-80
2023/08/03 05:54:23;;;;;;;55.17;14.65;;;;;;;18.54;100.00;91718.09;4790163;29;20074;-81
2023/08/03 05:56:48;;;;;;;64.60;15.40;;;;;;;18.48;100.00;91723.66;4788994;30;20032;-80
2023/08/03 05:59:19;;;;;;;45.75;14.43;;;;;;;18.44;100.00;91720.22;4786720;30;20047;-80
2023/08/03 06:01:48;;;;;;;54.30;15.25;;;;;;;18.44;100.00;91714.13;4791118;29;20039;-80
2023/08/03 06:04:16;;;;;;;54.15;14.50;;;;;;;18.47;100.00;91714.19;4788123;29;20042;-80
2023/08/03 06:06:42;;;;;;;52.78;15.20;;;;;;;18.54;100.00;91712.81;4788796;30;20366;-80
2023/08/03 06:09:11;;;;;;;56.45;15.60;;;;;;;18.50;100.00;91710.06;4791353;29;20394;-79
2023/08/03 06:11:38;;;;;;;50.28;14.27;;;;;;;18.60;100.00;91706.06;4789825;30;20048;-80
2023/08/03 06:14:11;;;;;;;49.50;14.65;;;;;;;18.61;100.00;91702.31;4789740;29;20051;-80
2023/08/03 06:16:37;;;;;;;46.45;14.30;;;;;;;18.61;100.00;91692.47;4789254;29;20456;-80
2023/08/03 06:19:05;;;;;;;45.45;14.63;;;;;;;18.71;100.00;91701.69;4790380;29;20039;-80
2023/08/03 06:21:31;;;;;;;53.03;15.52;;;;;;;18.79;100.00;91707.91;4789361;29;20043;-80
2023/08/03 06:23:58;;;;;;;48.30;15.55;;;;;;;18.85;100.00;91704.63;4789522;30;20046;-80
2023/08/03 06:26:25;;;;;;;48.47;16.10;;;;;;;18.95;100.00;91710.44;4783648;29;20142;-81
2023/08/03 06:28:53;;;;;;;51.15;14.63;;;;;;;18.95;100.00;91708.53;4788721;30;20031;-79
2023/08/03 06:31:30;;;;;;;51.80;15.35;;;;;;;18.89;100.00;91717.91;4801772;29;20039;-80
2023/08/03 06:33:56;;;;;;;59.33;15.23;;;;;;;18.89;100.00;91712.59;4786658;29;20290;-81
2023/08/03 06:36:26;;;;;;;41.40;15.35;;;;;;;19.03;100.00;91714.72;4786934;29;20414;-85
2023/08/03 06:38:53;;;;;;;50.45;15.07;;;;;;;19.30;100.00;91716.25;4784514;30;20043;-83
2023/08/03 06:41:18;;;;;;;57.97;15.32;;;;;;;19.95;100.00;91717.06;4786998;29;20498;-82
2023/08/03 06:43:44;;;;;;;34.60;13.10;;;;;;;20.32;100.00;91724.28;4788157;30;20058;-82
2023/08/03 06:46:10;;;;;;;46.33;14.50;;;;;;;20.34;100.00;91722.03;4789702;30;20094;-82
2023/08/03 06:48:36;;;;;;;52.80;13.73;;;;;;;20.28;100.00;91712.84;4804279;29;20054;-82
2023/08/03 06:51:03;;;;;;;40.30;13.48;;;;;;;20.21;100.00;91723.41;4790274;30;20027;-82
2023/08/03 06:53:30;;;;;;;43.50;13.00;;;;;;;20.14;100.00;91724.84;4787761;29;20062;-82
2023/08/03 06:55:56;;;;;;;43.05;13.90;;;;;;;20.07;100.00;91727.44;4787729;29;20469;-83
2023/08/03 06:58:21;;;;;;;41.75;13.90;;;;;;;19.75;100.00;91730.50;4787691;29;20040;-82
2023/08/03 07:00:47;;;;;;;33.70;13.32;;;;;;;19.68;100.00;91732.25;4791891;29;20046;-81
2023/08/03 07:03:13;;;;;;;46.72;13.60;;;;;;;19.59;100.00;91729.91;4789874;29;20090;-83
2023/08/03 07:05:40;;;;;;;51.58;14.93;;;;;;;19.45;100.00;91721.72;4786127;29;20108;-82
2023/08/03 07:08:05;;;;;;;45.47;13.15;;;;;;;19.39;100.00;91725.84;4786691;30;20043;-81
2023/08/03 07:10:33;;;;;;;45.40;14.43;;;;;;;19.33;100.00;91733.34;4783530;30;20111;-81
2023/08/03 07:12:58;;;;;;;54.10;15.02;;;;;;;19.30;100.00;91732.16;4786857;29;20051;-82
2023/08/03 07:15:24;;;;;;;53.58;14.48;;;;;;;19.25;100.00;91732.47;4779210;30;20571;-82
2023/08/03 07:17:50;;;;;;;51.15;14.90;;;;;;;19.28;100.00;91731.75;4783223;29;20104;-82
2023/08/03 07:20:17;;;;;;;46.15;15.10;;;;;;;19.29;100.00;91738.56;4783252;29;20592;-81
2023/08/03 07:22:45;;;;;;;45.30;14.80;;;;;;;19.34;100.00;91740.94;4769162;30;20042;-84
2023/08/03 07:25:11;;;;;;;56.58;16.23;;;;;;;19.47;100.00;91735.41;4786088;29;20046;-83
2023/08/03 07:27:40;;;;;;;39.90;13.13;;;;;;;19.65;100.00;91746.25;4786968;29;20047;-82
2023/08/03 07:30:07;;;;;;;56.08;14.52;;;;;;;19.54;100.00;91748.78;4780601;30;20402;-82
2023/08/03 07:32:33;;;;;;;42.20;13.15;;;;;;;19.56;100.00;91749.19;4784954;29;20047;-82
2023/08/03 07:34:59;;;;;;;39.33;13.55;;;;;;;19.55;100.00;91753.72;4801937;29;20036;-83
2023/08/03 07:37:25;;;;;;;35.65;14.90;;;;;;;19.60;100.00;91752.66;4788952;29;20035;-82
2023/08/03 07:39:51;;;;;;;44.58;13.80;;;;;;;19.68;100.00;91759.59;4786879;29;20042;-81
2023/08/03 07:42:16;;;;;;;43.55;14.10;;;;;;;19.88;100.00;91752.28;4787422;29;20114;-83
2023/08/03 07:44:42;;;;;;;43.10;13.63;;;;;;;19.99;100.00;91760.34;4794252;29;20050;-84
2023/08/03 07:47:08;;;;;;;51.20;14.25;;;;;;;20.02;100.00;91767.63;4787328;29;20031;-84
2023/08/03 07:49:33;;;;;;;40.13;13.40;;;;;;;20.23;100.00;91761.03;4769929;30;20039;-83
2023/08/03 07:51:59;;;;;;;40.05;13.70;;;;;;;20.27;100.00;91764.47;4781448;29;20507;-84
2023/08/03 07:54:25;;;;;;;40.92;14.90;;;;;;;20.38;100.00;91770.69;4784266;29;20457;-85
2023/08/03 07:56:50;;;;;;;37.08;13.68;;;;;;;20.66;100.00;91764.88;4782979;30;20078;-84
2023/08/03 07:59:16;;;;;;;49.53;14.07;;;;;;;21.21;100.00;91764.22;4785642;29;20046;-83
2023/08/03 08:01:43;;;;;;;32.97;13.07;;;;;;;21.35;100.00;91772.28;4788168;30;20041;-84
2023/08/03 08:04:09;;;;;;;38.42;13.20;;;;;;;21.37;100.00;91762.03;4787601;30;20043;-83
2023/08/03 08:06:35;;;;;;;39.13;14.15;;;;;;;21.11;100.00;91767.56;4784899;29;20047;-86
2023/08/03 08:09:01;;;;;;;39.40;13.55;;;;;;;21.63;100.00;91765.63;4777288;29;20066;-83
2023/08/03 08:11:28;;;;;;;40.60;13.35;;;;;;;21.61;100.00;91778.56;4794863;29;20082;-84
2023/08/03 08:13:57;;;;;;;45.72;13.85;;;;;;;21.92;100.00;91777.22;4789635;29;20047;-85
2023/08/03 08:16:22;;;;;;;40.50;13.93;;;;;;;21.91;100.00;91773.03;4788381;29;20035;-85
2023/08/03 08:18:48;;;;;;;49.88;15.18;;;;;;;21.88;100.00;91775.66;4790791;29;20066;-85
2023/08/03 08:21:14;;;;;;;41.00;14.77;;;;;;;21.47;100.00;91759.84;4789555;30;20040;-85
2023/08/03 08:23:40;;;;;;;31.75;11.02;;;;;;;21.77;100.00;91773.72;4799646;29;20067;-85
2023/08/03 08:26:13;;;;;;;46.15;12.57;;;;;;;21.61;100.00;91773.22;4787034;29;20051;-86
2023/08/03 08:28:41;;;;;;;39.88;13.77;;;;;;;21.18;100.00;91768.34;4804126;29;20046;-83
2023/08/03 08:31:07;;;;;;;41.60;13.75;;;;;;;21.16;100.00;91773.28;4790011;29;20407;-86
2023/08/03 08:33:33;;;;;;;44.80;15.32;;;;;;;20.95;100.00;91765.91;4774545;30;20047;-84
2023/08/03 08:35:59;;;;;;;39.58;13.30;;;;;;;21.02;100.00;91759.88;4773245;29;20105;-85
2023/08/03 08:38:25;;;;;;;42.80;14.95;;;;;;;21.58;100.00;91763.34;4783180;29;20039;-84
2023/08/03 08:40:51;;;;;;;44.28;14.93;;;;;;;21.59;100.00;91770.19;4789041;29;20047;-84
2023/08/03 08:43:20;;;;;;;44.80;13.35;;;;;;;21.97;100.00;91784.06;4789012;29;20041;-83
2023/08/03 08:45:46;;;;;;;35.63;12.93;;;;;;;21.97;100.00;91779.50;4787022;29;20047;-85
2023/08/03 08:48:11;;;;;;;48.38;15.18;;;;;;;21.95;100.00;91775.69;4787422;29;20043;-85
2023/08/03 08:50:38;;;;;;;37.05;12.70;;;;;;;22.00;100.00;91778.03;4784283;29;20047;-84
2023/08/03 08:53:04;;;;;;;31.40;12.90;;;;;;;22.36;100.00;91781.63;4789758;29;21294;-84
2023/08/03 08:55:30;;;;;;;41.90;13.70;;;;;;;21.94;100.00;91779.50;4784778;29;20363;-85
2023/08/03 08:57:58;;;;;;;30.30;9.02;;;;;;;22.01;100.00;91771.53;4785140;29;20124;-82
2023/08/03 09:00:25;;;;;;;41.63;13.48;;;;;;;22.11;100.00;91784.16;4786530;29;20039;-82
2023/08/03 09:03:01;;;;;;;34.30;12.82;;;;;;;22.32;100.00;91778.16;4787230;30;20045;-85
2023/08/03 09:05:27;;;;;;;35.70;13.32;;;;;;;22.17;100.00;91787.97;4787669;29;20035;-86
2023/08/03 09:08:04;;;;;;;39.00;13.88;;;;;;;22.32;100.00;91780.84;4784582;29;20027;-86
2023/08/03 09:10:31;;;;;;;35.13;12.50;;;;;;;22.22;100.00;91784.22;4786265;30;20043;-86
2023/08/03 09:12:58;;;;;;;33.83;13.75;;;;;;;22.43;100.00;91783.53;4790473;29;20045;-86
2023/08/03 09:15:36;;;;;;;31.77;12.23;;;;;;;22.36;100.00;91788.81;4789726;29;20067;-84
2023/08/03 09:18:04;;;;;;;37.95;13.57;;;;;;;22.56;100.00;91786.59;4789237;29;20480;-85
2023/08/03 09:20:31;;;;;;;35.10;13.13;;;;;;;22.48;100.00;91788.50;4788657;29;20114;-86
2023/08/03 09:22:57;;;;;;;38.22;13.52;;;;;;;22.12;100.00;91782.25;4786582;30;20039;-86
2023/08/03 09:25:23;;;;;;;31.02;12.68;;;;;;;21.94;100.00;91785.59;4788210;30;20122;-85
2023/08/03 09:27:51;;;;;;;39.72;13.25;;;;;;;21.91;100.00;91791.69;4788501;29;20047;-84
2023/08/03 09:30:17;;;;;;;27.45;13.60;;;;;;;22.14;100.00;91783.41;4788530;29;20411;-84
2023/08/03 09:32:43;;;;;;;42.33;13.13;;;;;;;22.44;100.00;91787.72;4784236;30;20066;-84
2023/08/03 09:35:20;;;;;;;34.63;12.48;;;;;;;22.70;100.00;91785.88;4786412;30;20047;-85
2023/08/03 09:37:47;;;;;;;35.42;12.73;;;;;;;22.96;100.00;91790.09;4765552;30;20122;-84
2023/08/03 09:40:13;;;;;;;32.17;12.50;;;;;;;23.04;100.00;91792.44;4772560;30;20049;-84
2023/08/03 09:42:40;;;;;;;35.33;12.93;;;;;;;22.36;100.00;91783.50;4801100;29;20047;-84
2023/08/03 09:45:07;;;;;;;35.50;11.57;;;;;;;22.19;100.00;91790.28;4785460;30;20550;-84
2023/08/03 09:47:36;;;;;;;34.20;13.77;;;;;;;22.32;100.00;91793.41;4788955;29;20567;-83
2023/08/03 09:50:05;;;;;;;36.88;14.10;;;;;;;22.51;100.00;91790.41;4790068;30;20486;-84
2023/08/03 09:52:31;;;;;;;44.30;12.98;;;;;;;22.88;100.00;91786.69;4789552;29;20047;-84
2023/08/03 09:55:12;;;;;;;32.15;12.82;;;;;;;23.17;100.00;91784.03;4787930;29;20047;-84
2023/08/03 09:57:46;;;;;;;34.60;12.77;;;;;;;23.60;100.00;91781.38;4787155;30;20043;-85
2023/08/03 10:00:13;;;;;;;32.67;11.00;;;;;;;23.40;100.00;91789.00;4783094;29;20059;-85
2023/08/03 10:02:49;;;;;;;31.98;12.35;;;;;;;23.00;100.00;91789.00;4787324;29;20048;-84
2023/08/03 10:05:18;;;;;;;34.42;12.75;;;;;;;23.41;100.00;91801.97;4786583;30;20031;-83
2023/08/03 10:08:09;;;;;;;35.22;12.30;;;;;;;23.31;100.00;91802.75;4789741;29;20043;-84
2023/08/03 10:10:47;;;;;;;33.17;11.68;;;;;;;23.55;100.00;91792.41;4793598;29;20059;-84
2023/08/03 10:13:14;;;;;;;32.63;13.30;;;;;;;23.33;100.00;91800.47;4792313;29;20047;-85
2023/08/03 10:15:41;;;;;;;31.38;12.07;;;;;;;23.56;100.00;91807.31;4788658;29;20039;-85
2023/08/03 10:18:08;;;;;;;32.15;12.10;;;;;;;23.59;100.00;91795.84;4790111;29;20134;-82
2023/08/03 10:20:35;;;;;;;24.83;10.80;;;;;;;23.53;100.00;91784.03;4785389;29;20093;-82
2023/08/03 10:23:18;;;;;;;24.98;11.40;;;;;;;23.56;100.00;91788.63;4786155;29;20130;-84
2023/08/03 10:25:51;;;;;;;28.15;10.50;;;;;;;23.76;100.00;91797.78;4795184;29;20048;-84
2023/08/03 10:28:17;;;;;;;35.97;11.45;;;;;;;23.53;100.00;91787.47;4782586;29;20057;-83
2023/08/03 10:31:19;;;;;;;26.15;12.70;;;;;;;23.54;100.00;91782.88;4779503;29;20047;-83
2023/08/03 10:33:51;;;;;;;29.13;10.93;;;;;;;23.48;100.00;91790.50;4783127;29;20633;-84
2023/08/03 10:36:33;;;;;;;39.15;13.25;;;;;;;23.73;100.00;91790.47;4786698;30;20074;-84
2023/08/03 10:39:14;;;;;;;38.67;12.52;;;;;;;23.82;100.00;91787.44;4799117;29;20032;-83
2023/08/03 10:41:45;;;;;;;36.28;12.23;;;;;;;24.04;100.00;91782.81;4802746;29;20047;-85
2023/08/03 10:44:13;;;;;;;33.87;11.77;;;;;;;24.18;100.00;91790.00;4795539;29;20054;-84
2023/08/03 10:46:49;;;;;;;33.45;12.15;;;;;;;24.17;100.00;91789.25;4786778;29;20570;-84
2023/08/03 10:49:20;;;;;;;20.80;7.65;;;;;;;24.32;100.00;91781.94;4788647;29;20074;-84
2023/08/03 10:51:46;;;;;;;29.77;10.85;;;;;;;24.24;100.00;91786.53;4785779;29;20046;-84
2023/08/03 10:54:13;;;;;;;30.00;11.15;;;;;;;24.09;100.00;91782.41;4785821;29;20039;-84
2023/08/03 10:56:38;;;;;;;23.20;10.95;;;;;;;24.29;100.00;91788.81;4785808;29;20043;-85
2023/08/03 10:59:05;;;;;;;26.77;11.30;;;;;;;24.26;100.00;91789.59;4788256;29;20508;-82
2023/08/03 11:01:31;;;;;;;28.50;10.95;;;;;;;24.13;100.00;91785.81;4769962;30;20035;-80
2023/08/03 11:03:58;;;;;;;32.22;12.18;;;;;;;24.34;100.00;91786.88;4784791;29;20031;-80
2023/08/03 11:06:25;;;;;;;24.33;11.60;;;;;;;24.57;100.00;91783.78;4786792;29;20043;-83
2023/08/03 11:08:50;;;;;;;25.27;11.32;;;;;;;24.99;100.00;91777.38;4787091;29;20054;-83